Time;durP1;ratioP1;P1;durP2;ratioP2;P2;SDS_P1;SDS_P2;PMS_P1;PMS_P2;Temp;Humidity;BMP_temperature;BMP_pressure;BME280_temperature;BME280_humidity;BME280_pressure;Samples;Min_cycle;Max_cycle;Signal;HPM_P1;HPM_P2
2023/12/05 00:01:19;;;;;;;;;;;52.10;2227.20;;;;;;4993894;28;19910;-73
2023/12/05 00:03:45;;;;;;;;;;;52.10;2227.20;;;;;;4987344;28;19906;-72
2023/12/05 00:06:10;;;;;;;;;;;76.80;2227.20;;;;;;4980528;28;19945;-72
2023/12/05 00:08:36;;;;;;;;;;;52.10;2227.20;;;;;;4988642;28;19909;-73
2023/12/05 00:11:03;;;;;;;;;;;76.80;2227.20;;;;;;4982872;28;20327;-72
2023/12/05 00:13:28;;;;;;;;;;;76.80;2227.20;;;;;;4985370;28;19910;-73
2023/12/05 00:15:54;;;;;;;;;;;76.80;2227.20;;;;;;4982732;28;20284;-72
2023/12/05 00:18:19;;;;;;;;;;;76.80;2227.20;;;;;;4992404;28;19910;-73
2023/12/05 00:20:45;;;;;;;;;;;76.80;2227.20;;;;;;4986917;28;19989;-72
2023/12/05 00:23:11;;;;;;;;;;;76.80;2227.20;;;;;;4984850;28;20287;-72
2023/12/05 00:25:37;;;;;;;;;;;76.80;2227.20;;;;;;4986482;28;19910;-72
2023/12/05 00:28:02;;;;;;;;;;;52.10;2227.20;;;;;;4989580;28;19935;-73
2023/12/05 00:30:28;;;;;;;;;;;52.10;2227.20;;;;;;4993246;28;20379;-73
2023/12/05 00:32:53;;;;;;;;;;;52.10;2227.20;;;;;;4984991;28;19914;-72
2023/12/05 00:35:19;;;;;;;;;;;76.80;2227.20;;;;;;4982534;28;19983;-72
2023/12/05 00:37:45;;;;;;;;;;;52.10;2227.20;;;;;;4991318;28;19968;-72
2023/12/05 00:40:11;;;;;;;;;;;76.80;2227.20;;;;;;4985044;28;20312;-73
2023/12/05 00:42:36;;;;;;;;;;;76.80;2227.20;;;;;;4990272;28;19925;-73
2023/12/05 00:45:02;;;;;;;;;;;76.80;2227.20;;;;;;4991993;28;19905;-72
2023/12/05 00:47:28;;;;;;;;;;;52.10;2227.20;;;;;;4991079;28;20055;-73
2023/12/05 00:49:53;;;;;;;;;;;52.10;2227.20;;;;;;4994606;28;19906;-73
2023/12/05 00:52:19;;;;;;;;;;;52.10;2227.20;;;;;;4994658;28;19917;-73
2023/12/05 00:54:45;;;;;;;;;;;52.00;2227.20;;;;;;4994905;28;19952;-73
2023/12/05 00:57:11;;;;;;;;;;;52.10;2227.20;;;;;;4994948;28;20352;-72
2023/12/05 00:59:36;;;;;;;;;;;52.00;2227.20;;;;;;4991934;28;19941;-72
2023/12/05 01:02:02;;;;;;;;;;;52.00;2227.20;;;;;;4975330;28;19934;-73
2023/12/05 01:04:28;;;;;;;;;;;52.00;2227.20;;;;;;4975414;28;19914;-73
2023/12/05 01:06:53;;;;;;;;;;;52.00;2227.20;;;;;;4975274;28;19913;-72
2023/12/05 01:09:19;;;;;;;;;;;52.00;2227.20;;;;;;4975281;28;19910;-72
2023/12/05 01:11:44;;;;;;;;;;;52.00;2227.20;;;;;;4975172;28;20378;-73
2023/12/05 01:14:10;;;;;;;;;;;52.10;2227.20;;;;;;4980535;28;19920;-73
2023/12/05 01:16:40;;;;;;;;;;;52.10;2227.20;;;;;;4994873;28;19905;-73
2023/12/05 01:19:06;;;;;;;;;;;76.80;2227.20;;;;;;4994243;28;19906;-73
2023/12/05 01:21:32;;;;;;;;;;;52.10;2227.20;;;;;;4994182;28;19927;-72
2023/12/05 01:23:57;;;;;;;;;;;52.10;2227.20;;;;;;4994217;28;19917;-72
2023/12/05 01:26:23;;;;;;;;;;;52.00;2227.20;;;;;;4994458;28;20271;-73
2023/12/05 01:28:48;;;;;;;;;;;52.00;2227.20;;;;;;4994200;28;19909;-73
2023/12/05 01:31:14;;;;;;;;;;;52.00;2227.20;;;;;;4994146;28;20420;-73
2023/12/05 01:33:39;;;;;;;;;;;52.10;2227.20;;;;;;4993990;28;19994;-73
2023/12/05 01:36:11;;;;;;;;;;;52.10;2227.20;;;;;;4994336;28;20324;-73
2023/12/05 01:38:37;;;;;;;;;;;52.10;2227.20;;;;;;4994079;28;19992;-73
2023/12/05 01:41:02;;;;;;;;;;;52.10;2227.20;;;;;;4994172;28;19905;-73
2023/12/05 01:43:28;;;;;;;;;;;76.80;2227.20;;;;;;4994140;28;20348;-73
2023/12/05 01:45:53;;;;;;;;;;;76.90;2227.20;;;;;;4994086;28;19905;-73
2023/12/05 01:48:19;;;;;;;;;;;76.80;2227.20;;;;;;4976759;28;19916;-72
2023/12/05 01:50:45;;;;;;;;;;;76.90;2227.20;;;;;;4993672;28;20418;-72
2023/12/05 01:53:12;;;;;;;;;;;76.90;2227.20;;;;;;4994055;28;19909;-71
2023/12/05 01:55:37;;;;;;;;;;;76.90;2227.20;;;;;;4993934;28;19912;-72
2023/12/05 01:58:04;;;;;;;;;;;76.90;2227.20;;;;;;4994247;28;19906;-72
2023/12/05 02:00:30;;;;;;;;;;;76.90;2227.20;;;;;;4993912;28;20284;-73
2023/12/05 02:02:56;;;;;;;;;;;77.00;2227.20;;;;;;4993962;28;19906;-75
2023/12/05 02:05:22;;;;;;;;;;;76.90;2227.20;;;;;;4993773;28;20350;-73
2023/12/05 02:07:48;;;;;;;;;;;77.00;2227.20;;;;;;4993831;28;19906;-73
2023/12/05 02:10:14;;;;;;;;;;;77.00;2227.20;;;;;;4981912;28;19929;-73
2023/12/05 02:12:39;;;;;;;;;;;77.00;2227.20;;;;;;5001110;28;19917;-73
2023/12/05 02:15:05;;;;;;;;;;;77.00;2227.20;;;;;;4993805;28;19906;-73
2023/12/05 02:17:37;;;;;;;;;;;77.20;2227.20;;;;;;4993702;28;19906;-74
2023/12/05 02:20:12;;;;;;;;;;;77.10;2227.20;;;;;;4993625;28;20375;-74
2023/12/05 02:22:56;;;;;;;;;;;77.00;2227.20;;;;;;4993560;28;19976;-74
2023/12/05 02:25:54;;;;;;;;;;;77.00;2227.20;;;;;;4993710;28;19913;-74
2023/12/05 02:28:20;;;;;;;;;;;77.00;2227.20;;;;;;4915011;29;19952;-73
2023/12/05 02:30:45;;;;;;;;;;;77.00;2227.20;;;;;;4914617;29;20328;-73
2023/12/05 02:33:11;;;;;;;;;;;77.00;2227.20;;;;;;4914862;29;20380;-73
2023/12/05 02:35:37;;;;;;;;;;;77.00;2227.20;;;;;;4914780;29;19908;-73
2023/12/05 02:38:06;;;;;;;;;;;77.10;2227.20;;;;;;4914788;29;20265;-73
2023/12/05 02:40:40;;;;;;;;;;;77.10;2227.20;;;;;;4914519;29;19907;-73
2023/12/05 02:43:10;;;;;;;;;;;77.10;2227.20;;;;;;4914703;29;20050;-73
2023/12/05 02:45:38;;;;;;;;;;;77.00;2227.20;;;;;;4914571;29;20353;-73
2023/12/05 02:48:04;;;;;;;;;;;77.00;2227.20;;;;;;4914759;29;19940;-73
2023/12/05 02:50:29;;;;;;;;;;;77.00;2227.20;;;;;;4914004;29;19922;-73
2023/12/05 02:52:55;;;;;;;;;;;77.00;2227.20;;;;;;4914935;29;19919;-73
2023/12/05 02:55:21;;;;;;;;;;;77.00;2227.20;;;;;;4914155;29;19914;-73
2023/12/05 02:57:46;;;;;;;;;;;77.00;2227.20;;;;;;4916121;29;19907;-73
2023/12/05 03:00:12;;;;;;;;;;;77.00;2227.20;;;;;;4918031;29;19911;-72
2023/12/05 03:02:38;;;;;;;;;;;77.00;2227.20;;;;;;4917706;29;20362;-74
2023/12/05 03:05:04;;;;;;;;;;;77.00;2227.20;;;;;;4992042;28;19913;-73
2023/12/05 03:07:29;;;;;;;;;;;77.00;2227.20;;;;;;4996959;28;19910;-74
2023/12/05 03:09:55;;;;;;;;;;;76.90;2227.20;;;;;;4996620;28;19912;-73
2023/12/05 03:12:20;;;;;;;;;;;77.00;2227.20;;;;;;4996999;28;19905;-73
2023/12/05 03:14:46;;;;;;;;;;;77.00;2227.20;;;;;;4996582;28;19921;-73
2023/12/05 03:17:12;;;;;;;;;;;77.00;2227.20;;;;;;4996720;28;19968;-74
2023/12/05 03:19:38;;;;;;;;;;;77.00;2227.20;;;;;;4996525;28;19905;-74
2023/12/05 03:22:03;;;;;;;;;;;77.10;2227.20;;;;;;4996591;28;20004;-73
2023/12/05 03:24:29;;;;;;;;;;;77.10;2227.20;;;;;;4996492;28;19987;-74
2023/12/05 03:26:55;;;;;;;;;;;77.10;2227.20;;;;;;4996527;28;19906;-73
2023/12/05 03:29:20;;;;;;;;;;;77.10;2227.20;;;;;;4996656;28;20003;-72
2023/12/05 03:31:46;;;;;;;;;;;77.10;2227.20;;;;;;4996411;28;19980;-72
2023/12/05 03:34:11;;;;;;;;;;;77.10;2227.20;;;;;;4996255;28;19952;-73
2023/12/05 03:36:37;;;;;;;;;;;77.10;2227.20;;;;;;4996271;28;19906;-73
2023/12/05 03:39:03;;;;;;;;;;;77.10;2227.20;;;;;;4996144;28;20280;-74
2023/12/05 03:41:28;;;;;;;;;;;77.00;2227.20;;;;;;4996214;28;19906;-74
2023/12/05 03:43:54;;;;;;;;;;;76.90;2227.20;;;;;;4996179;28;19917;-75
2023/12/05 03:46:20;;;;;;;;;;;76.90;2227.20;;;;;;4996228;28;19906;-73
2023/12/05 03:48:45;;;;;;;;;;;77.00;2227.20;;;;;;5008865;28;20372;-73
2023/12/05 03:51:12;;;;;;;;;;;77.00;2227.20;;;;;;4996067;28;19921;-74
2023/12/05 03:53:37;;;;;;;;;;;76.90;2227.20;;;;;;4978806;28;19916;-74
2023/12/05 03:56:03;;;;;;;;;;;76.90;2227.20;;;;;;4995917;28;20288;-73
2023/12/05 03:58:29;;;;;;;;;;;77.00;2227.20;;;;;;4995882;28;19949;-73
2023/12/05 04:00:54;;;;;;;;;;;76.90;2227.20;;;;;;4995811;28;19905;-74
2023/12/05 04:03:20;;;;;;;;;;;76.90;2227.20;;;;;;4995598;28;19905;-73
2023/12/05 04:05:46;;;;;;;;;;;76.90;2227.20;;;;;;4995852;28;19931;-73
2023/12/05 04:08:11;;;;;;;;;;;76.90;2227.20;;;;;;4994953;28;19976;-74
2023/12/05 04:10:37;;;;;;;;;;;76.90;2227.20;;;;;;4995297;28;19914;-74
2023/12/05 04:13:03;;;;;;;;;;;77.00;2227.20;;;;;;4995560;28;20352;-73
2023/12/05 04:15:28;;;;;;;;;;;77.00;2227.20;;;;;;4995671;28;19952;-73
2023/12/05 04:17:54;;;;;;;;;;;76.90;2227.20;;;;;;4995396;28;19905;-74
2023/12/05 04:20:21;;;;;;;;;;;77.00;2227.20;;;;;;4995493;28;19984;-73
2023/12/05 04:22:46;;;;;;;;;;;76.90;2227.20;;;;;;4995346;28;20008;-73
2023/12/05 04:25:12;;;;;;;;;;;77.00;2227.20;;;;;;4995464;28;20319;-74
2023/12/05 04:27:38;;;;;;;;;;;77.00;2227.20;;;;;;4995216;28;19956;-73
2023/12/05 04:30:04;;;;;;;;;;;77.00;2227.20;;;;;;4995286;28;19905;-74
2023/12/05 04:32:29;;;;;;;;;;;76.90;2227.20;;;;;;4995256;28;19909;-74
2023/12/05 04:34:55;;;;;;;;;;;76.90;2227.20;;;;;;4995356;28;20414;-73
2023/12/05 04:37:20;;;;;;;;;;;77.00;2227.20;;;;;;4995206;28;20004;-73
2023/12/05 04:39:46;;;;;;;;;;;77.00;2227.20;;;;;;4995062;28;19906;-74
2023/12/05 04:42:12;;;;;;;;;;;77.00;2227.20;;;;;;4995032;28;19906;-73
2023/12/05 04:44:37;;;;;;;;;;;77.00;2227.20;;;;;;4995147;28;20283;-74
2023/12/05 04:47:03;;;;;;;;;;;77.00;2227.20;;;;;;4994956;28;19906;-73
2023/12/05 04:49:29;;;;;;;;;;;77.00;2227.20;;;;;;4994927;28;19910;-74
2023/12/05 04:51:55;;;;;;;;;;;77.10;2227.20;;;;;;4994672;28;19924;-73
2023/12/05 04:54:21;;;;;;;;;;;77.10;2227.20;;;;;;4994949;28;20315;-73
2023/12/05 04:56:46;;;;;;;;;;;77.10;2227.20;;;;;;4994607;28;19997;-73
2023/12/05 04:59:12;;;;;;;;;;;77.10;2227.20;;;;;;4984874;28;20359;-73
2023/12/05 05:01:38;;;;;;;;;;;77.10;2227.20;;;;;;4987415;28;19909;-73
2023/12/05 05:04:03;;;;;;;;;;;77.10;2227.20;;;;;;4977363;28;19992;-73
2023/12/05 05:06:29;;;;;;;;;;;77.10;2227.20;;;;;;4989695;28;19921;-73
2023/12/05 05:08:55;;;;;;;;;;;77.10;2227.20;;;;;;4988655;28;19909;-73
2023/12/05 05:11:21;;;;;;;;;;;77.10;2227.20;;;;;;4990875;28;19918;-72
2023/12/05 05:13:46;;;;;;;;;;;77.20;2227.20;;;;;;4985342;28;19910;-73
2023/12/05 05:16:12;;;;;;;;;;;77.20;2227.20;;;;;;4994647;28;19906;-73
2023/12/05 05:18:37;;;;;;;;;;;77.10;2227.20;;;;;;4988412;28;19917;-74
2023/12/05 05:21:06;;;;;;;;;;;77.10;2227.20;;;;;;4988195;28;19910;-74
2023/12/05 05:23:34;;;;;;;;;;;77.20;2227.20;;;;;;4983729;28;19972;-72
2023/12/05 05:26:00;;;;;;;;;;;77.20;2227.20;;;;;;4993932;28;19992;-73
2023/12/05 05:28:26;;;;;;;;;;;77.10;2227.20;;;;;;4988325;28;20005;-72
2023/12/05 05:30:54;;;;;;;;;;;77.20;2227.20;;;;;;4984006;28;19968;-73
2023/12/05 05:33:23;;;;;;;;;;;77.10;2227.20;;;;;;4992634;28;19913;-74
2023/12/05 05:35:48;;;;;;;;;;;77.20;2227.20;;;;;;4982917;28;19910;-73
2023/12/05 05:38:14;;;;;;;;;;;77.20;2227.20;;;;;;4979318;28;19965;-73
2023/12/05 05:40:40;;;;;;;;;;;77.30;2227.20;;;;;;4983657;28;19914;-74
2023/12/05 05:43:05;;;;;;;;;;;77.30;2227.20;;;;;;4981034;28;19912;-73
2023/12/05 05:45:31;;;;;;;;;;;77.30;2227.20;;;;;;4986397;28;19960;-74
2023/12/05 05:47:57;;;;;;;;;;;77.20;2227.20;;;;;;4986949;28;19936;-73
2023/12/05 05:50:22;;;;;;;;;;;77.20;2227.20;;;;;;4987666;28;20372;-72
2023/12/05 05:52:48;;;;;;;;;;;77.30;2227.20;;;;;;4988397;28;19918;-74
2023/12/05 05:55:13;;;;;;;;;;;77.20;2227.20;;;;;;4989669;28;19963;-73
2023/12/05 05:57:39;;;;;;;;;;;77.20;2227.20;;;;;;4989348;28;19995;-74
2023/12/05 06:00:05;;;;;;;;;;;77.30;2227.20;;;;;;4988516;28;20376;-73
2023/12/05 06:02:31;;;;;;;;;;;77.30;2227.20;;;;;;4988533;28;19905;-73
2023/12/05 06:04:57;;;;;;;;;;;77.30;2227.20;;;;;;4990135;28;20005;-73
2023/12/05 06:07:23;;;;;;;;;;;77.30;2227.20;;;;;;4985563;28;20335;-75
2023/12/05 06:09:49;;;;;;;;;;;77.40;2227.20;;;;;;4963494;28;20249;-72
2023/12/05 06:12:15;;;;;;;;;;;77.30;2227.20;;;;;;4985328;28;19925;-72
2023/12/05 06:14:40;;;;;;;;;;;77.40;2227.20;;;;;;4987910;28;19910;-73
2023/12/05 06:17:06;;;;;;;;;;;77.40;2227.20;;;;;;4991376;28;19913;-73
2023/12/05 06:19:31;;;;;;;;;;;77.40;2227.20;;;;;;4991476;28;20020;-73
2023/12/05 06:21:57;;;;;;;;;;;77.40;2227.20;;;;;;4991532;28;19924;-73
2023/12/05 06:24:23;;;;;;;;;;;77.40;2227.20;;;;;;4970297;28;20065;-73
2023/12/05 06:26:48;;;;;;;;;;;77.40;2227.20;;;;;;4989162;28;19932;-73
2023/12/05 06:29:14;;;;;;;;;;;77.40;2227.20;;;;;;4990591;28;19917;-72
2023/12/05 06:31:39;;;;;;;;;;;77.40;2227.20;;;;;;4991597;28;19918;-72
2023/12/05 06:34:06;;;;;;;;;;;77.30;2227.20;;;;;;4992531;28;19910;-73
2023/12/05 06:36:31;;;;;;;;;;;77.30;2227.20;;;;;;4989597;28;19906;-72
2023/12/05 06:38:57;;;;;;;;;;;77.40;2227.20;;;;;;4993632;28;19986;-73
2023/12/05 06:41:22;;;;;;;;;;;77.40;2227.20;;;;;;4991522;28;19913;-72
2023/12/05 06:43:48;;;;;;;;;;;77.40;2227.20;;;;;;4993237;28;19954;-72
2023/12/05 06:46:13;;;;;;;;;;;77.40;2227.20;;;;;;4991441;28;19952;-72
2023/12/05 06:48:39;;;;;;;;;;;77.50;2227.20;;;;;;4992766;28;19917;-73
2023/12/05 06:51:05;;;;;;;;;;;77.50;2227.20;;;;;;4989641;28;19922;-75
2023/12/05 06:53:30;;;;;;;;;;;77.50;2227.20;;;;;;4993621;28;19929;-73
2023/12/05 06:55:56;;;;;;;;;;;77.50;2227.20;;;;;;4991444;28;19920;-75
2023/12/05 06:58:22;;;;;;;;;;;77.50;2227.20;;;;;;4993128;28;19910;-74
2023/12/05 07:00:47;;;;;;;;;;;77.50;2227.20;;;;;;4985489;28;19906;-76
2023/12/05 07:03:13;;;;;;;;;;;77.50;2227.20;;;;;;4964764;28;19961;-75
2023/12/05 07:05:39;;;;;;;;;;;77.60;2227.20;;;;;;4973730;28;19937;-74
2023/12/05 07:08:06;;;;;;;;;;;77.50;2227.20;;;;;;4990285;28;19910;-74
2023/12/05 07:10:32;;;;;;;;;;;77.60;2227.20;;;;;;4994998;28;19918;-74
2023/12/05 07:12:58;;;;;;;;;;;77.60;2227.20;;;;;;4993457;28;19913;-77
2023/12/05 07:15:23;;;;;;;;;;;77.60;2227.20;;;;;;4968191;28;19910;-75
2023/12/05 07:17:49;;;;;;;;;;;77.70;2227.20;;;;;;4975176;28;20025;-74
2023/12/05 07:20:14;;;;;;;;;;;77.70;2227.20;;;;;;4973114;28;19980;-77
2023/12/05 07:22:41;;;;;;;;;;;77.70;2227.20;;;;;;4992445;28;19926;-75
2023/12/05 07:25:07;;;;;;;;;;;77.70;2227.20;;;;;;4971706;28;19910;-77
2023/12/05 07:27:34;;;;;;;;;;;102.40;2227.20;;;;;;4978324;28;19910;-76
2023/12/05 07:29:59;;;;;;;;;;;102.40;2227.20;;;;;;4994245;28;19913;-76
2023/12/05 07:32:25;;;;;;;;;;;102.40;2227.20;;;;;;4992793;28;19916;-74
2023/12/05 07:34:50;;;;;;;;;;;102.40;2227.20;;;;;;4991105;28;19910;-75
2023/12/05 07:37:16;;;;;;;;;;;102.50;2227.20;;;;;;4974978;28;19910;-79
2023/12/05 07:39:41;;;;;;;;;;;102.40;2227.20;;;;;;4970205;28;19917;-74
2023/12/05 07:42:07;;;;;;;;;;;102.40;2227.20;;;;;;4990313;28;19964;-74
2023/12/05 07:44:33;;;;;;;;;;;102.50;2227.20;;;;;;4968106;28;19992;-75
2023/12/05 07:46:58;;;;;;;;;;;102.50;2227.20;;;;;;4983497;28;19957;-75
2023/12/05 07:49:24;;;;;;;;;;;102.60;2227.20;;;;;;4969868;28;19979;-75
2023/12/05 07:51:49;;;;;;;;;;;102.60;2227.20;;;;;;4986956;28;19929;-75
2023/12/05 07:54:15;;;;;;;;;;;102.60;2227.20;;;;;;4986106;28;19996;-76
2023/12/05 07:56:41;;;;;;;;;;;102.60;2227.20;;;;;;4990264;28;20295;-75
2023/12/05 07:59:06;;;;;;;;;;;102.70;2227.20;;;;;;4989326;28;19964;-76
2023/12/05 08:01:32;;;;;;;;;;;102.70;2227.20;;;;;;4990348;28;19906;-74
2023/12/05 08:04:01;;;;;;;;;;;102.60;2227.20;;;;;;4988118;28;19909;-76
2023/12/05 08:06:27;;;;;;;;;;;102.70;2227.20;;;;;;4991193;28;19996;-75
2023/12/05 08:08:52;;;;;;;;;;;102.70;2227.20;;;;;;4963821;28;19984;-75
2023/12/05 08:11:19;;;;;;;;;;;102.70;2227.20;;;;;;4990368;28;19920;-75
2023/12/05 08:13:47;;;;;;;;;;;102.80;2227.20;;;;;;4990813;28;19910;-75
2023/12/05 08:16:13;;;;;;;;;;;102.80;2227.20;;;;;;4993657;28;20330;-76
2023/12/05 08:18:38;;;;;;;;;;;102.80;2227.20;;;;;;4989496;28;19956;-74
2023/12/05 08:21:04;;;;;;;;;;;102.80;2227.20;;;;;;4971434;28;19935;-75
2023/12/05 08:23:30;;;;;;;;;;;102.80;2227.20;;;;;;4992959;28;19925;-75
2023/12/05 08:25:56;;;;;;;;;;;102.80;2227.20;;;;;;4988861;28;19968;-75
2023/12/05 08:28:21;;;;;;;;;;;102.80;2227.20;;;;;;4993202;28;20462;-75
2023/12/05 08:30:47;;;;;;;;;;;102.80;2227.20;;;;;;4985179;28;19914;-75
2023/12/05 08:33:13;;;;;;;;;;;102.90;2227.20;;;;;;4990328;28;19956;-75
2023/12/05 08:35:39;;;;;;;;;;;102.90;2227.20;;;;;;4985839;28;20347;-75
2023/12/05 08:38:04;;;;;;;;;;;102.90;2227.20;;;;;;4970299;28;19910;-75
2023/12/05 08:40:30;;;;;;;;;;;103.10;2227.20;;;;;;4965010;28;20343;-75
2023/12/05 08:42:56;;;;;;;;;;;103.00;2227.20;;;;;;4990266;28;19910;-74
2023/12/05 08:45:21;;;;;;;;;;;103.10;2227.20;;;;;;4988636;28;19913;-75
2023/12/05 08:47:52;;;;;;;;;;;103.20;2227.20;;;;;;4990515;28;19910;-74
2023/12/05 08:50:18;;;;;;;;;;;103.30;2227.20;;;;;;4986573;28;19922;-78
2023/12/05 08:52:44;;;;;;;;;;;128.00;2252.80;;;;;;4985856;28;19921;-74
2023/12/05 08:55:10;;;;;;;;;;;103.30;2227.20;;;;;;4987144;28;19913;-75
2023/12/05 08:57:36;;;;;;;;;;;128.00;2252.80;;;;;;4994406;28;20048;-75
2023/12/05 09:00:05;;;;;;;;;;;128.10;2252.80;;;;;;4980471;28;19932;-73
2023/12/05 09:02:31;;;;;;;;;;;128.30;2252.80;;;;;;4989409;28;19909;-74
2023/12/05 09:04:57;;;;;;;;;;;128.30;2252.80;;;;;;4984196;28;19917;-74
2023/12/05 09:07:23;;;;;;;;;;;128.30;2252.80;;;;;;4988554;28;19910;-75
2023/12/05 09:09:48;;;;;;;;;;;128.40;2252.80;;;;;;4988804;28;19910;-74
2023/12/05 09:12:14;;;;;;;;;;;128.50;2252.80;;;;;;4991782;28;19918;-75
2023/12/05 09:14:40;;;;;;;;;;;128.60;2252.80;;;;;;4992767;28;19913;-75
2023/12/05 09:17:09;;;;;;;;;;;128.70;2252.80;;;;;;4967696;28;20539;-75
2023/12/05 09:19:34;;;;;;;;;;;128.70;2252.80;;;;;;4989704;28;19910;-75
2023/12/05 09:22:00;;;;;;;;;;;128.70;2252.80;;;;;;4989735;28;19918;-75
2023/12/05 09:24:26;;;;;;;;;;;128.80;2252.80;;;;;;4989851;28;19945;-74
2023/12/05 09:26:52;;;;;;;;;;;153.70;2252.80;;;;;;4989106;28;19906;-74
2023/12/05 09:29:18;;;;;;;;;;;153.80;2252.80;;;;;;4991682;28;19909;-75
2023/12/05 09:31:43;;;;;;;;;;;153.90;2252.80;;;;;;4971984;28;19914;-75
2023/12/05 09:34:09;;;;;;;;;;;153.80;2252.80;;;;;;4988455;28;20131;-74
2023/12/05 09:36:35;;;;;;;;;;;153.70;2252.80;;;;;;4987125;28;19906;-75
2023/12/05 09:39:00;;;;;;;;;;;153.70;2252.80;;;;;;4974782;28;19910;-75
2023/12/05 09:41:27;;;;;;;;;;;154.00;2252.80;;;;;;4988812;28;19984;-75
2023/12/05 09:43:53;;;;;;;;;;;154.10;2252.80;;;;;;4981968;28;19910;-75
2023/12/05 09:46:20;;;;;;;;;;;154.30;2252.80;;;;;;4990436;28;20356;-75
2023/12/05 09:48:46;;;;;;;;;;;179.20;2252.80;;;;;;4986770;28;20012;-75
2023/12/05 09:51:14;;;;;;;;;;;179.50;2252.80;;;;;;4985724;28;19940;-74
2023/12/05 09:53:40;;;;;;;;;;;179.80;2252.80;;;;;;4984221;28;20450;-75
2023/12/05 09:56:07;;;;;;;;;;;180.00;2252.80;;;;;;4983845;28;19909;-75
2023/12/05 09:58:33;;;;;;;;;;;180.00;2252.80;;;;;;4990637;28;20345;-75
2023/12/05 10:01:01;;;;;;;;;;;180.00;2252.80;;;;;;4985073;28;19914;-75
2023/12/05 10:03:28;;;;;;;;;;;180.00;2252.80;;;;;;4985189;28;20004;-75
2023/12/05 10:05:55;;;;;;;;;;;204.80;2252.80;;;;;;4988939;28;19910;-75
2023/12/05 10:08:21;;;;;;;;;;;204.90;2252.80;;;;;;4991712;28;20379;-75
2023/12/05 10:10:47;;;;;;;;;;;204.90;2252.80;;;;;;4971225;28;19917;-75
2023/12/05 10:13:12;;;;;;;;;;;205.20;2252.80;;;;;;4967295;28;19910;-75
2023/12/05 10:15:39;;;;;;;;;;;205.10;2252.80;;;;;;4991054;28;19913;-75
2023/12/05 10:18:05;;;;;;;;;;;205.50;2252.80;;;;;;4976644;28;20011;-75
2023/12/05 10:20:30;;;;;;;;;;;205.40;2252.80;;;;;;4994364;28;19910;-75
2023/12/05 10:22:56;;;;;;;;;;;205.60;2252.80;;;;;;4990657;28;19922;-75
2023/12/05 10:25:22;;;;;;;;;;;205.40;2252.80;;;;;;4994645;28;19956;-75
2023/12/05 10:28:05;;;;;;;;;;;205.40;2252.80;;;;;;4991878;28;19906;-75
2023/12/05 10:30:33;;;;;;;;;;;205.60;2252.80;;;;;;4989321;28;19976;-74
2023/12/05 10:33:09;;;;;;;;;;;205.60;2252.80;;;;;;4992047;28;20384;-75
2023/12/05 10:35:35;;;;;;;;;;;230.50;2252.80;;;;;;4987930;28;19956;-75
2023/12/05 10:38:10;;;;;;;;;;;230.50;2252.80;;;;;;4988988;28;19913;-75
2023/12/05 10:40:56;;;;;;;;;;;230.60;2252.80;;;;;;4993801;28;19913;-75
2023/12/05 10:43:22;;;;;;;;;;;230.40;2252.80;;;;;;4990845;28;19909;-75
2023/12/05 10:45:48;;;;;;;;;;;230.40;2252.80;;;;;;4988242;28;19945;-75
2023/12/05 10:48:15;;;;;;;;;;;205.70;2252.80;;;;;;4970894;28;19910;-74
2023/12/05 10:50:41;;;;;;;;;;;205.70;2252.80;;;;;;4966516;28;19921;-75
2023/12/05 10:53:06;;;;;;;;;;;230.50;2252.80;;;;;;4993212;28;19914;-75
2023/12/05 10:55:33;;;;;;;;;;;230.60;2252.80;;;;;;4985397;28;19917;-75
2023/12/05 10:57:59;;;;;;;;;;;230.50;2252.80;;;;;;4974832;28;20334;-75
2023/12/05 11:00:25;;;;;;;;;;;230.60;2252.80;;;;;;4972641;28;19914;-75
2023/12/05 11:02:51;;;;;;;;;;;230.60;2252.80;;;;;;4972173;28;20434;-74
2023/12/05 11:05:18;;;;;;;;;;;230.70;2252.80;;;;;;4973033;28;19916;-75
2023/12/05 11:07:44;;;;;;;;;;;231.00;2252.80;;;;;;4986899;28;19910;-75
2023/12/05 11:10:10;;;;;;;;;;;230.90;2252.80;;;;;;4986423;28;20473;-75
2023/12/05 11:12:37;;;;;;;;;;;230.90;2252.80;;;;;;4990867;28;19909;-75
2023/12/05 11:15:03;;;;;;;;;;;230.90;2252.80;;;;;;4976153;28;19910;-75
2023/12/05 11:17:33;;;;;;;;;;;230.90;2252.80;;;;;;4991232;28;19957;-75
2023/12/05 11:20:13;;;;;;;;;;;230.90;2252.80;;;;;;4989844;28;19917;-75
2023/12/05 11:22:48;;;;;;;;;;;230.70;2252.80;;;;;;4983928;28;19921;-75
2023/12/05 11:25:16;;;;;;;;;;;230.70;2252.80;;;;;;4992298;28;19916;-75
2023/12/05 11:28:06;;;;;;;;;;;230.60;2252.80;;;;;;4968229;28;19906;-74
2023/12/05 11:30:41;;;;;;;;;;;230.60;2252.80;;;;;;4993163;28;20382;-74
2023/12/05 11:33:26;;;;;;;;;;;230.60;2252.80;;;;;;4992910;28;20376;-75
2023/12/05 11:36:22;;;;;;;;;;;230.60;2252.80;;;;;;4993461;28;19909;-74
2023/12/05 11:38:48;;;;;;;;;;;230.60;2252.80;;;;;;4992868;28;19910;-75
2023/12/05 11:41:20;;;;;;;;;;;230.50;2252.80;;;;;;4991076;28;19913;-75
2023/12/05 11:44:05;;;;;;;;;;;230.40;2252.80;;;;;;4982777;28;20329;-75
2023/12/05 11:46:34;;;;;;;;;;;205.70;2252.80;;;;;;4988658;28;19914;-75
2023/12/05 11:49:01;;;;;;;;;;;230.40;2252.80;;;;;;4994879;28;19917;-75
2023/12/05 11:51:29;;;;;;;;;;;205.70;2252.80;;;;;;4990225;28;19922;-74
2023/12/05 11:53:55;;;;;;;;;;;205.70;2252.80;;;;;;4989323;28;19914;-75
2023/12/05 11:56:21;;;;;;;;;;;230.40;2252.80;;;;;;4987532;28;19910;-75
2023/12/05 11:58:46;;;;;;;;;;;205.70;2252.80;;;;;;4989166;28;20005;-75
2023/12/05 12:01:13;;;;;;;;;;;205.70;2252.80;;;;;;4991266;28;19909;-75
2023/12/05 12:03:49;;;;;;;;;;;205.70;2252.80;;;;;;4987579;28;20290;-74
2023/12/05 12:06:18;;;;;;;;;;;205.60;2252.80;;;;;;4986560;28;19936;-74
2023/12/05 12:08:54;;;;;;;;;;;205.40;2252.80;;;;;;4989723;28;19935;-75
2023/12/05 12:11:23;;;;;;;;;;;205.50;2252.80;;;;;;4974422;28;19918;-75
2023/12/05 12:13:49;;;;;;;;;;;205.60;2252.80;;;;;;4990616;28;19906;-75
2023/12/05 12:16:16;;;;;;;;;;;205.30;2252.80;;;;;;4985341;28;19914;-75
2023/12/05 12:18:42;;;;;;;;;;;205.50;2252.80;;;;;;4989668;28;19981;-74
2023/12/05 12:21:08;;;;;;;;;;;205.30;2252.80;;;;;;4993555;28;19941;-75
2023/12/05 12:23:34;;;;;;;;;;;205.20;2252.80;;;;;;4993103;28;19926;-75
2023/12/05 12:26:00;;;;;;;;;;;205.30;2252.80;;;;;;4974219;28;19947;-75
2023/12/05 12:28:28;;;;;;;;;;;205.30;2252.80;;;;;;4971591;28;19917;-74
2023/12/05 12:30:57;;;;;;;;;;;205.20;2252.80;;;;;;4989153;28;19929;-75
2023/12/05 12:33:28;;;;;;;;;;;205.10;2252.80;;;;;;4985999;28;19992;-75
2023/12/05 12:35:53;;;;;;;;;;;205.20;2252.80;;;;;;4963160;28;19906;-75
2023/12/05 12:38:19;;;;;;;;;;;205.10;2252.80;;;;;;4983887;28;20010;-75
2023/12/05 12:40:45;;;;;;;;;;;205.00;2252.80;;;;;;4967602;28;20368;-75
2023/12/05 12:43:12;;;;;;;;;;;205.10;2252.80;;;;;;4989184;28;19913;-74
2023/12/05 12:45:38;;;;;;;;;;;205.20;2252.80;;;;;;4984435;28;20000;-75
2023/12/05 12:48:04;;;;;;;;;;;205.10;2252.80;;;;;;4993228;28;20012;-76
2023/12/05 12:50:30;;;;;;;;;;;205.10;2252.80;;;;;;4989329;28;20401;-75
2023/12/05 12:52:56;;;;;;;;;;;180.10;2252.80;;;;;;4989132;28;19914;-75
2023/12/05 12:55:22;;;;;;;;;;;205.00;2252.80;;;;;;4988562;28;19917;-75
2023/12/05 12:57:50;;;;;;;;;;;205.00;2252.80;;;;;;4969078;28;19968;-75
2023/12/05 13:00:17;;;;;;;;;;;205.10;2252.80;;;;;;4988560;28;19916;-75
2023/12/05 13:02:43;;;;;;;;;;;205.00;2252.80;;;;;;4989181;28;20000;-75
2023/12/05 13:05:08;;;;;;;;;;;204.90;2252.80;;;;;;4985835;28;20001;-74
2023/12/05 13:07:34;;;;;;;;;;;204.80;2252.80;;;;;;4992826;28;19910;-75
2023/12/05 13:10:00;;;;;;;;;;;204.80;2252.80;;;;;;4984619;28;20427;-74
2023/12/05 13:12:25;;;;;;;;;;;204.90;2252.80;;;;;;4987274;28;20276;-74
2023/12/05 13:14:51;;;;;;;;;;;204.80;2252.80;;;;;;4991471;28;19910;-76
2023/12/05 13:17:20;;;;;;;;;;;204.80;2252.80;;;;;;4990539;28;19910;-74
2023/12/05 13:19:45;;;;;;;;;;;204.80;2252.80;;;;;;4987145;28;19910;-75
2023/12/05 13:22:11;;;;;;;;;;;204.80;2252.80;;;;;;4990257;28;20383;-75
2023/12/05 13:24:37;;;;;;;;;;;204.80;2252.80;;;;;;4988172;28;19916;-75
2023/12/05 13:27:02;;;;;;;;;;;204.90;2252.80;;;;;;4988767;28;19910;-79
2023/12/05 13:29:28;;;;;;;;;;;204.90;2252.80;;;;;;4970686;28;20005;-82
2023/12/05 13:31:55;;;;;;;;;;;204.90;2252.80;;;;;;4973865;28;20012;-75
2023/12/05 13:34:22;;;;;;;;;;;204.90;2252.80;;;;;;4983687;28;19996;-76
2023/12/05 13:36:48;;;;;;;;;;;204.80;2252.80;;;;;;4971482;28;20438;-76
2023/12/05 13:39:15;;;;;;;;;;;180.10;2252.80;;;;;;4989112;28;19910;-74
2023/12/05 13:41:41;;;;;;;;;;;180.10;2252.80;;;;;;4969911;28;19921;-75
2023/12/05 13:44:09;;;;;;;;;;;180.10;2252.80;;;;;;4991288;28;20343;-75